Time;durP1;ratioP1;P1;durP2;ratioP2;P2;SDS_P1;SDS_P2;PMS_P1;PMS_P2;Temp;Humidity;BMP_temperature;BMP_pressure;BME280_temperature;BME280_humidity;BME280_pressure;Samples;Min_cycle;Max_cycle;Signal;HPM_P1;HPM_P2
2023/08/01 00:00:19;;;;;;;4.53;3.78;;;;;;;;;;5083798;28;20257;-66
2023/08/01 00:02:46;;;;;;;4.53;3.60;;;;;;;;;;5077643;28;20209;-66
2023/08/01 00:05:13;;;;;;;8.40;3.53;;;;;;;;;;5078938;28;20254;-65
2023/08/01 00:07:41;;;;;;;5.13;3.38;;;;;;;;;;5072644;28;20710;-65
2023/08/01 00:10:09;;;;;;;4.90;3.42;;;;;;;;;;5080577;28;20209;-65
2023/08/01 00:12:36;;;;;;;4.63;3.53;;;;;;;;;;5076274;28;20204;-66
2023/08/01 00:15:04;;;;;;;3.72;3.42;;;;;;;;;;5091612;28;20262;-65
2023/08/01 00:17:31;;;;;;;4.93;3.25;;;;;;;;;;5087608;28;20689;-65
2023/08/01 00:19:58;;;;;;;3.67;3.30;;;;;;;;;;5083712;28;20201;-65
2023/08/01 00:22:26;;;;;;;4.30;3.13;;;;;;;;;;5088495;28;20489;-65
2023/08/01 00:24:53;;;;;;;5.65;3.33;;;;;;;;;;5072654;28;20209;-65
2023/08/01 00:27:20;;;;;;;5.63;3.65;;;;;;;;;;5082766;28;20236;-65
2023/08/01 00:29:48;;;;;;;3.70;3.22;;;;;;;;;;5084396;28;20581;-65
2023/08/01 00:32:15;;;;;;;4.40;3.50;;;;;;;;;;5076260;28;20209;-65
2023/08/01 00:34:42;;;;;;;7.10;3.63;;;;;;;;;;5074739;28;20252;-66
2023/08/01 00:37:09;;;;;;;5.38;3.60;;;;;;;;;;5080261;28;20216;-65
2023/08/01 00:39:38;;;;;;;3.65;3.35;;;;;;;;;;5081282;28;20201;-66
2023/08/01 00:42:05;;;;;;;4.95;3.85;;;;;;;;;;5083338;28;20258;-65
2023/08/01 00:44:32;;;;;;;3.70;3.30;;;;;;;;;;5075370;28;20257;-66
2023/08/01 00:47:00;;;;;;;4.68;3.45;;;;;;;;;;5074839;28;20209;-66
2023/08/01 00:49:27;;;;;;;3.78;3.33;;;;;;;;;;5076342;28;20206;-64
2023/08/01 00:51:54;;;;;;;4.00;3.60;;;;;;;;;;5078264;28;20281;-65
2023/08/01 00:54:21;;;;;;;6.43;3.42;;;;;;;;;;5075460;28;20772;-66
2023/08/01 00:56:49;;;;;;;4.60;3.35;;;;;;;;;;5080602;28;20200;-65
2023/08/01 00:59:16;;;;;;;3.65;3.35;;;;;;;;;;5083313;28;20221;-65
2023/08/01 01:01:43;;;;;;;4.28;3.42;;;;;;;;;;5066663;28;20201;-66
2023/08/01 01:04:11;;;;;;;6.25;3.60;;;;;;;;;;5075253;28;20216;-66
2023/08/01 01:06:41;;;;;;;6.22;3.70;;;;;;;;;;5079505;28;20202;-65
2023/08/01 01:09:16;;;;;;;4.30;3.50;;;;;;;;;;5074453;28;20605;-66
2023/08/01 01:11:44;;;;;;;4.38;3.45;;;;;;;;;;5080254;28;20665;-65
2023/08/01 01:14:11;;;;;;;5.13;3.25;;;;;;;;;;5073892;28;20258;-65
2023/08/01 01:16:39;;;;;;;5.30;3.13;;;;;;;;;;5070632;28;20201;-66
2023/08/01 01:19:10;;;;;;;5.18;3.40;;;;;;;;;;5078957;28;20216;-66
2023/08/01 01:21:41;;;;;;;3.97;3.55;;;;;;;;;;5071422;28;20226;-66
2023/08/01 01:24:27;;;;;;;5.45;3.35;;;;;;;;;;5081776;28;20680;-66
2023/08/01 01:26:55;;;;;;;4.22;3.30;;;;;;;;;;5083844;28;20255;-66
2023/08/01 01:29:23;;;;;;;3.40;3.10;;;;;;;;;;5074733;28;20225;-66
2023/08/01 01:31:50;;;;;;;4.82;3.95;;;;;;;;;;5074336;28;20201;-66
2023/08/01 01:34:18;;;;;;;4.97;3.58;;;;;;;;;;5071245;28;20853;-66
2023/08/01 01:36:45;;;;;;;5.30;2.97;;;;;;;;;;5080448;28;20204;-66
2023/08/01 01:39:13;;;;;;;4.97;3.15;;;;;;;;;;5078238;28;20233;-64
2023/08/01 01:41:40;;;;;;;4.70;3.50;;;;;;;;;;5083655;28;20205;-66
2023/08/01 01:44:07;;;;;;;5.15;3.25;;;;;;;;;;5088953;28;20265;-66
2023/08/01 01:46:34;;;;;;;3.90;3.40;;;;;;;;;;5075420;28;20197;-64
2023/08/01 01:49:02;;;;;;;4.50;3.20;;;;;;;;;;5078820;28;20329;-65
2023/08/01 01:51:31;;;;;;;7.32;3.50;;;;;;;;;;5080382;28;20265;-65
2023/08/01 01:53:58;;;;;;;4.07;3.67;;;;;;;;;;5082641;28;20265;-64
2023/08/01 01:56:25;;;;;;;4.70;3.58;;;;;;;;;;5076356;28;20582;-64
2023/08/01 01:58:52;;;;;;;6.57;4.07;;;;;;;;;;5075972;28;20221;-65
2023/08/01 02:01:20;;;;;;;4.43;3.58;;;;;;;;;;5091144;28;20207;-65
2023/08/01 02:03:47;;;;;;;5.18;3.70;;;;;;;;;;5081461;28;20689;-65
2023/08/01 02:06:15;;;;;;;5.35;3.92;;;;;;;;;;5072285;28;20212;-65
2023/08/01 02:08:42;;;;;;;5.10;3.53;;;;;;;;;;5072115;28;20251;-65
2023/08/01 02:11:09;;;;;;;5.45;3.90;;;;;;;;;;5077859;28;20637;-65
2023/08/01 02:13:37;;;;;;;3.80;3.50;;;;;;;;;;5072612;28;20685;-65
2023/08/01 02:16:04;;;;;;;6.93;3.85;;;;;;;;;;5071922;28;20694;-65
2023/08/01 02:18:31;;;;;;;7.45;4.32;;;;;;;;;;5071615;28;20221;-65
2023/08/01 02:20:58;;;;;;;5.75;3.70;;;;;;;;;;5074461;28;20205;-65
2023/08/01 02:23:26;;;;;;;6.80;3.83;;;;;;;;;;5073665;28;20205;-65
2023/08/01 02:25:53;;;;;;;4.97;4.10;;;;;;;;;;5078534;28;20205;-65
2023/08/01 02:28:20;;;;;;;5.28;4.00;;;;;;;;;;5057660;28;20506;-65
2023/08/01 02:30:49;;;;;;;4.28;3.72;;;;;;;;;;5071151;28;20758;-65
2023/08/01 02:33:16;;;;;;;4.97;4.13;;;;;;;;;;5069841;28;20295;-66
2023/08/01 02:35:46;;;;;;;5.95;3.80;;;;;;;;;;5080164;28;20735;-65
2023/08/01 02:38:14;;;;;;;5.13;4.05;;;;;;;;;;5064287;28;20220;-64
2023/08/01 02:40:41;;;;;;;4.50;3.78;;;;;;;;;;5078146;28;20205;-66
2023/08/01 02:43:08;;;;;;;6.40;4.15;;;;;;;;;;5070910;28;20209;-64
2023/08/01 02:45:35;;;;;;;5.35;3.95;;;;;;;;;;5070648;28;20258;-64
2023/08/01 02:48:03;;;;;;;6.47;3.58;;;;;;;;;;5071337;28;20308;-66
2023/08/01 02:50:30;;;;;;;5.55;3.70;;;;;;;;;;5074902;28;20201;-66
2023/08/01 02:52:57;;;;;;;5.00;3.97;;;;;;;;;;5085523;28;20201;-65
2023/08/01 02:55:24;;;;;;;4.38;3.53;;;;;;;;;;5077330;28;20291;-65
2023/08/01 02:57:52;;;;;;;5.97;3.95;;;;;;;;;;5073516;28;20220;-64
2023/08/01 03:00:19;;;;;;;5.07;3.75;;;;;;;;;;5077160;28;20227;-65
2023/08/01 03:02:46;;;;;;;5.90;4.10;;;;;;;;;;5071121;28;20206;-65
2023/08/01 03:05:14;;;;;;;4.40;3.78;;;;;;;;;;5057757;28;20213;-66
2023/08/01 03:07:41;;;;;;;5.82;3.95;;;;;;;;;;5076708;28;20225;-65
2023/08/01 03:10:09;;;;;;;5.68;4.00;;;;;;;;;;5072381;28;20217;-65
2023/08/01 03:12:40;;;;;;;5.75;4.05;;;;;;;;;;5073489;28;20571;-65
2023/08/01 03:15:08;;;;;;;4.60;4.05;;;;;;;;;;5064206;28;20743;-65
2023/08/01 03:17:36;;;;;;;4.28;3.72;;;;;;;;;;5077872;28;20225;-65
2023/08/01 03:20:03;;;;;;;3.92;3.53;;;;;;;;;;5071903;28;20194;-65
2023/08/01 03:22:30;;;;;;;5.32;3.65;;;;;;;;;;5067513;28;20273;-65
2023/08/01 03:24:58;;;;;;;4.50;3.70;;;;;;;;;;5071013;28;20200;-65
2023/08/01 03:27:25;;;;;;;6.22;4.25;;;;;;;;;;5069668;28;20241;-65
2023/08/01 03:29:52;;;;;;;5.72;4.03;;;;;;;;;;5077126;28;20204;-65
2023/08/01 03:32:20;;;;;;;5.00;4.07;;;;;;;;;;5062658;28;20239;-65
2023/08/01 03:34:47;;;;;;;4.88;3.90;;;;;;;;;;5068213;28;20328;-65
2023/08/01 03:37:15;;;;;;;4.65;3.38;;;;;;;;;;5070564;28;21542;-65
2023/08/01 03:39:42;;;;;;;5.10;3.75;;;;;;;;;;5067499;28;20229;-65
2023/08/01 03:42:09;;;;;;;5.20;3.55;;;;;;;;;;5063997;28;20234;-65
2023/08/01 03:44:37;;;;;;;5.28;3.58;;;;;;;;;;5067090;28;20205;-63
2023/08/01 03:47:04;;;;;;;4.53;3.45;;;;;;;;;;5073313;28;20263;-65
2023/08/01 03:49:31;;;;;;;4.60;3.28;;;;;;;;;;5070815;28;20214;-65
2023/08/01 03:51:59;;;;;;;4.63;3.40;;;;;;;;;;5071019;28;20212;-66
2023/08/01 03:54:27;;;;;;;5.38;3.40;;;;;;;;;;5066129;28;20202;-65
2023/08/01 03:56:54;;;;;;;6.47;3.83;;;;;;;;;;5070299;28;20202;-65
2023/08/01 03:59:21;;;;;;;5.97;3.38;;;;;;;;;;5073442;28;20226;-66
2023/08/01 04:01:48;;;;;;;5.95;3.28;;;;;;;;;;5068443;28;20201;-65
2023/08/01 04:04:16;;;;;;;5.13;3.50;;;;;;;;;;5074613;28;20254;-65
2023/08/01 04:06:43;;;;;;;5.53;3.30;;;;;;;;;;5065199;28;20697;-65
2023/08/01 04:09:11;;;;;;;6.05;3.65;;;;;;;;;;5053074;28;20431;-65
2023/08/01 04:11:38;;;;;;;5.18;3.50;;;;;;;;;;5065472;28;20605;-65
2023/08/01 04:14:05;;;;;;;4.80;3.50;;;;;;;;;;5060067;28;20213;-64
2023/08/01 04:16:33;;;;;;;7.20;3.88;;;;;;;;;;5048722;28;20222;-65
2023/08/01 04:19:00;;;;;;;4.90;3.38;;;;;;;;;;5066304;28;20221;-65
2023/08/01 04:21:27;;;;;;;8.13;4.00;;;;;;;;;;5069751;28;20201;-65
2023/08/01 04:23:55;;;;;;;6.10;4.03;;;;;;;;;;5066078;28;20235;-65
2023/08/01 04:26:22;;;;;;;6.50;3.55;;;;;;;;;;5068146;28;20200;-66
2023/08/01 04:28:49;;;;;;;7.03;3.90;;;;;;;;;;5082053;28;20233;-65
2023/08/01 04:31:16;;;;;;;7.28;3.72;;;;;;;;;;5073666;28;20614;-65
2023/08/01 04:33:44;;;;;;;6.40;3.60;;;;;;;;;;5071052;28;20275;-65
2023/08/01 04:36:12;;;;;;;6.30;3.65;;;;;;;;;;5081096;28;20232;-65
2023/08/01 04:38:39;;;;;;;4.05;3.65;;;;;;;;;;5082487;28;20216;-65
2023/08/01 04:41:06;;;;;;;5.07;3.72;;;;;;;;;;5077831;28;20899;-65
2023/08/01 04:43:34;;;;;;;5.43;3.67;;;;;;;;;;5078835;28;20201;-66
2023/08/01 04:46:01;;;;;;;7.55;3.80;;;;;;;;;;5078174;28;20688;-67
2023/08/01 04:48:28;;;;;;;6.18;3.95;;;;;;;;;;5075054;28;21706;-65
2023/08/01 04:50:55;;;;;;;6.40;4.00;;;;;;;;;;5064272;28;20202;-65
2023/08/01 04:53:23;;;;;;;5.82;3.83;;;;;;;;;;5068003;28;20209;-66
2023/08/01 04:55:50;;;;;;;5.95;4.45;;;;;;;;;;5072456;28;20225;-64
2023/08/01 04:58:18;;;;;;;5.70;4.10;;;;;;;;;;5069623;28;20290;-66
2023/08/01 05:00:45;;;;;;;6.57;3.85;;;;;;;;;;5070208;28;20773;-67
2023/08/01 05:03:12;;;;;;;5.97;4.38;;;;;;;;;;5068264;28;20212;-66
2023/08/01 05:05:40;;;;;;;7.18;4.20;;;;;;;;;;5068081;28;20256;-65
2023/08/01 05:08:07;;;;;;;5.35;4.13;;;;;;;;;;5077738;28;20221;-65
2023/08/01 05:10:34;;;;;;;6.25;4.28;;;;;;;;;;5069915;28;20689;-65
2023/08/01 05:13:02;;;;;;;5.65;4.43;;;;;;;;;;5077617;28;20205;-65
2023/08/01 05:15:29;;;;;;;7.40;4.20;;;;;;;;;;5078338;28;20314;-64
2023/08/01 05:17:58;;;;;;;5.63;4.00;;;;;;;;;;5071994;28;20751;-65
2023/08/01 05:20:30;;;;;;;4.30;3.78;;;;;;;;;;5074023;28;20208;-65
2023/08/01 05:22:59;;;;;;;6.22;3.95;;;;;;;;;;5072208;28;20197;-64
2023/08/01 05:25:26;;;;;;;8.73;3.95;;;;;;;;;;5065483;28;20210;-64
2023/08/01 05:27:53;;;;;;;5.97;3.30;;;;;;;;;;5076323;28;20282;-64
2023/08/01 05:30:21;;;;;;;6.07;3.53;;;;;;;;;;5072975;28;20258;-64
2023/08/01 05:32:48;;;;;;;5.78;3.70;;;;;;;;;;5061270;28;20212;-64
2023/08/01 05:35:15;;;;;;;3.63;3.30;;;;;;;;;;5078847;28;20317;-64
2023/08/01 05:37:42;;;;;;;3.58;3.28;;;;;;;;;;5078262;28;20262;-63
2023/08/01 05:40:10;;;;;;;3.35;3.05;;;;;;;;;;5069450;28;20712;-66
2023/08/01 05:42:37;;;;;;;5.75;3.40;;;;;;;;;;5074507;28;20205;-65
2023/08/01 05:45:05;;;;;;;4.78;3.30;;;;;;;;;;5062981;28;20697;-65
2023/08/01 05:47:32;;;;;;;5.00;3.33;;;;;;;;;;5069674;28;20710;-65
2023/08/01 05:50:00;;;;;;;3.85;3.10;;;;;;;;;;5074031;28;20202;-65
2023/08/01 05:52:27;;;;;;;6.65;3.53;;;;;;;;;;5070644;28;20662;-65
2023/08/01 05:54:54;;;;;;;8.20;3.55;;;;;;;;;;5067521;28;20592;-64
2023/08/01 05:57:21;;;;;;;4.63;3.30;;;;;;;;;;5070142;28;20552;-65
2023/08/01 05:59:49;;;;;;;7.40;3.80;;;;;;;;;;5068675;28;20206;-65
2023/08/01 06:02:16;;;;;;;4.50;3.40;;;;;;;;;;5066558;28;20655;-65
2023/08/01 06:04:43;;;;;;;5.70;3.75;;;;;;;;;;5072213;28;20209;-66
2023/08/01 06:07:11;;;;;;;6.18;3.83;;;;;;;;;;5069184;28;20211;-65
2023/08/01 06:09:38;;;;;;;3.92;3.53;;;;;;;;;;5078220;28;20201;-65
2023/08/01 06:12:06;;;;;;;6.13;4.18;;;;;;;;;;5077018;28;20659;-65
2023/08/01 06:14:33;;;;;;;5.68;4.13;;;;;;;;;;5060220;28;20202;-65
2023/08/01 06:17:00;;;;;;;5.55;4.00;;;;;;;;;;5070371;28;20270;-65
2023/08/01 06:19:27;;;;;;;4.38;3.97;;;;;;;;;;5068469;28;20258;-65
2023/08/01 06:21:55;;;;;;;5.72;4.38;;;;;;;;;;5073569;28;20196;-65
2023/08/01 06:24:23;;;;;;;5.22;3.95;;;;;;;;;;5071521;28;20414;-65
2023/08/01 06:26:50;;;;;;;5.07;4.18;;;;;;;;;;5070327;28;20215;-65
2023/08/01 06:29:17;;;;;;;7.57;4.00;;;;;;;;;;5069498;28;20228;-65
2023/08/01 06:31:45;;;;;;;4.93;4.20;;;;;;;;;;5053086;28;20206;-65
2023/08/01 06:34:12;;;;;;;4.90;4.40;;;;;;;;;;5067035;28;20215;-65
2023/08/01 06:36:39;;;;;;;4.93;4.43;;;;;;;;;;5068819;28;20227;-65
2023/08/01 06:39:07;;;;;;;5.25;4.18;;;;;;;;;;5074999;28;20322;-64
2023/08/01 06:41:36;;;;;;;5.75;4.15;;;;;;;;;;5073718;28;20262;-65
2023/08/01 06:44:03;;;;;;;5.72;3.90;;;;;;;;;;5067708;28;20243;-65
2023/08/01 06:46:30;;;;;;;6.40;4.10;;;;;;;;;;5071972;28;20208;-65
2023/08/01 06:48:58;;;;;;;4.85;3.70;;;;;;;;;;5070730;28;20733;-65
2023/08/01 06:51:25;;;;;;;4.35;3.90;;;;;;;;;;5078774;28;20201;-64
2023/08/01 06:53:52;;;;;;;4.65;3.90;;;;;;;;;;5075180;28;20204;-66
2023/08/01 06:56:20;;;;;;;5.35;4.05;;;;;;;;;;5070538;28;20316;-66
2023/08/01 06:58:48;;;;;;;5.85;3.42;;;;;;;;;;5071453;28;20224;-65
2023/08/01 07:01:15;;;;;;;4.28;3.53;;;;;;;;;;5064838;28;20226;-65
2023/08/01 07:03:43;;;;;;;5.50;3.72;;;;;;;;;;5071414;28;20431;-66
2023/08/01 07:06:10;;;;;;;4.70;3.95;;;;;;;;;;5064688;28;20343;-65
2023/08/01 07:08:37;;;;;;;5.15;3.47;;;;;;;;;;5065128;28;20824;-65
2023/08/01 07:11:08;;;;;;;4.32;3.92;;;;;;;;;;5074985;28;20614;-65
2023/08/01 07:13:35;;;;;;;4.57;3.90;;;;;;;;;;5068917;28;20205;-65
2023/08/01 07:16:02;;;;;;;4.60;4.10;;;;;;;;;;5055921;28;20274;-65
2023/08/01 07:18:30;;;;;;;5.75;3.85;;;;;;;;;;5069247;28;20221;-64
2023/08/01 07:21:04;;;;;;;4.82;3.70;;;;;;;;;;5070504;28;20655;-65
2023/08/01 07:23:32;;;;;;;4.70;3.80;;;;;;;;;;5073546;28;20200;-62
2023/08/01 07:25:59;;;;;;;3.90;3.60;;;;;;;;;;5067450;28;20205;-63
2023/08/01 07:28:27;;;;;;;4.95;3.50;;;;;;;;;;5068662;28;20233;-63
2023/08/01 07:31:05;;;;;;;3.92;3.53;;;;;;;;;;5048133;28;20949;-63
2023/08/01 07:33:33;;;;;;;5.43;4.28;;;;;;;;;;5070070;28;20606;-63
2023/08/01 07:36:01;;;;;;;6.03;3.92;;;;;;;;;;5075711;28;20251;-65
2023/08/01 07:38:28;;;;;;;4.85;3.70;;;;;;;;;;5070583;28;20803;-65
2023/08/01 07:40:56;;;;;;;7.38;4.07;;;;;;;;;;5077542;28;20208;-65
2023/08/01 07:43:23;;;;;;;5.15;4.00;;;;;;;;;;5050381;28;20209;-66
2023/08/01 07:45:55;;;;;;;5.07;4.05;;;;;;;;;;5053713;28;20202;-65
2023/08/01 07:48:23;;;;;;;4.60;3.92;;;;;;;;;;5063940;28;20314;-65
2023/08/01 07:50:50;;;;;;;4.97;4.18;;;;;;;;;;5066201;28;20258;-65
2023/08/01 07:53:17;;;;;;;5.20;4.25;;;;;;;;;;5071988;28;20702;-65
2023/08/01 07:55:44;;;;;;;5.95;4.30;;;;;;;;;;5076949;28;20225;-67
2023/08/01 07:58:12;;;;;;;5.47;4.43;;;;;;;;;;5074804;28;20224;-66
2023/08/01 08:00:39;;;;;;;4.63;4.18;;;;;;;;;;5093672;28;20290;-64
2023/08/01 08:03:08;;;;;;;4.95;4.20;;;;;;;;;;5076349;28;20218;-63
2023/08/01 08:05:38;;;;;;;4.78;4.05;;;;;;;;;;5077442;28;20200;-65
2023/08/01 08:08:05;;;;;;;4.50;3.80;;;;;;;;;;5081296;28;20591;-68
2023/08/01 08:10:33;;;;;;;4.93;3.97;;;;;;;;;;5073581;28;20197;-69
2023/08/01 08:13:00;;;;;;;6.00;3.95;;;;;;;;;;5074642;28;20205;-69
2023/08/01 08:15:33;;;;;;;4.65;4.15;;;;;;;;;;5075668;28;20197;-65
2023/08/01 08:18:04;;;;;;;5.00;3.55;;;;;;;;;;5067094;28;20221;-65
2023/08/01 08:20:32;;;;;;;4.82;3.25;;;;;;;;;;5073516;28;20656;-67
2023/08/01 08:22:59;;;;;;;4.03;3.20;;;;;;;;;;5072485;28;20262;-65
2023/08/01 08:25:26;;;;;;;3.80;3.33;;;;;;;;;;5072807;28;20198;-69
2023/08/01 08:27:53;;;;;;;4.55;2.80;;;;;;;;;;5066017;28;20237;-65
2023/08/01 08:30:21;;;;;;;3.35;2.50;;;;;;;;;;5074230;28;20209;-66
2023/08/01 08:32:48;;;;;;;4.25;2.80;;;;;;;;;;5071053;28;20228;-65
2023/08/01 08:35:15;;;;;;;3.22;2.20;;;;;;;;;;5081024;28;20376;-69
2023/08/01 08:37:43;;;;;;;3.05;2.42;;;;;;;;;;5071916;28;20225;-71
2023/08/01 08:40:10;;;;;;;4.07;2.42;;;;;;;;;;5058926;28;20251;-65
2023/08/01 08:42:38;;;;;;;6.95;2.85;;;;;;;;;;5073924;28;20589;-67
2023/08/01 08:45:06;;;;;;;4.38;2.75;;;;;;;;;;5077724;28;20262;-65
2023/08/01 08:47:36;;;;;;;4.40;2.88;;;;;;;;;;5069330;28;20253;-65
2023/08/01 08:50:05;;;;;;;2.83;2.53;;;;;;;;;;5071398;28;20197;-67
2023/08/01 08:52:32;;;;;;;4.00;2.78;;;;;;;;;;5083810;28;20266;-64
2023/08/01 08:55:00;;;;;;;4.60;2.65;;;;;;;;;;5073051;28;20211;-66
2023/08/01 08:57:28;;;;;;;5.65;3.35;;;;;;;;;;5072544;28;20225;-67
2023/08/01 08:59:56;;;;;;;4.50;2.83;;;;;;;;;;5075123;28;20673;-64
2023/08/01 09:02:24;;;;;;;4.93;2.83;;;;;;;;;;5069873;28;20236;-65
2023/08/01 09:04:51;;;;;;;3.10;2.80;;;;;;;;;;5073483;28;20291;-65
2023/08/01 09:07:20;;;;;;;2.97;2.67;;;;;;;;;;5076988;28;20662;-64
2023/08/01 09:09:47;;;;;;;4.47;3.22;;;;;;;;;;5071547;28;20549;-66
2023/08/01 09:12:15;;;;;;;4.10;3.25;;;;;;;;;;5074295;28;20205;-65
2023/08/01 09:14:43;;;;;;;4.18;3.22;;;;;;;;;;5056422;28;20287;-66
2023/08/01 09:17:10;;;;;;;8.13;3.38;;;;;;;;;;5069731;28;20261;-64
2023/08/01 09:19:37;;;;;;;5.53;3.35;;;;;;;;;;5068550;28;20222;-65
2023/08/01 09:22:10;;;;;;;4.65;3.30;;;;;;;;;;5082750;28;20193;-67
2023/08/01 09:24:38;;;;;;;4.60;3.40;;;;;;;;;;5071411;28;20664;-66
2023/08/01 09:27:06;;;;;;;3.40;3.10;;;;;;;;;;5073632;28;20295;-66
2023/08/01 09:29:33;;;;;;;3.72;3.33;;;;;;;;;;5078701;28;20831;-69
2023/08/01 09:32:00;;;;;;;4.22;3.55;;;;;;;;;;5073787;28;20379;-65
2023/08/01 09:34:28;;;;;;;4.60;3.47;;;;;;;;;;5071177;28;20719;-66
2023/08/01 09:36:59;;;;;;;3.58;3.22;;;;;;;;;;5060697;28;20279;-65
2023/08/01 09:39:29;;;;;;;4.53;3.97;;;;;;;;;;5063756;28;20217;-66
2023/08/01 09:41:57;;;;;;;3.92;3.42;;;;;;;;;;5072977;28;20247;-66
2023/08/01 09:44:26;;;;;;;5.15;3.50;;;;;;;;;;5073054;28;20689;-64
2023/08/01 09:47:00;;;;;;;3.92;3.30;;;;;;;;;;5066356;28;20208;-66
2023/08/01 09:49:28;;;;;;;3.70;3.17;;;;;;;;;;5076490;28;20223;-68
2023/08/01 09:51:55;;;;;;;6.45;3.70;;;;;;;;;;5078122;28;20610;-65
2023/08/01 09:54:22;;;;;;;4.45;3.90;;;;;;;;;;5070892;28;20254;-65
2023/08/01 09:56:51;;;;;;;3.95;3.50;;;;;;;;;;5074075;28;20704;-65
2023/08/01 09:59:22;;;;;;;7.28;3.60;;;;;;;;;;5070152;28;20679;-65
2023/08/01 10:01:50;;;;;;;4.07;3.58;;;;;;;;;;5052909;28;20722;-65
2023/08/01 10:04:40;;;;;;;4.32;3.08;;;;;;;;;;5062541;28;20217;-66
2023/08/01 10:07:09;;;;;;;3.13;2.83;;;;;;;;;;5074593;28;20732;-65
2023/08/01 10:09:36;;;;;;;5.68;3.45;;;;;;;;;;5075894;28;20201;-65
2023/08/01 10:12:05;;;;;;;4.07;3.03;;;;;;;;;;5072455;28;20323;-65
2023/08/01 10:14:33;;;;;;;3.22;2.85;;;;;;;;;;5076210;28;20209;-66
2023/08/01 10:17:02;;;;;;;3.80;3.25;;;;;;;;;;5072827;28;20217;-65
2023/08/01 10:19:31;;;;;;;4.03;2.55;;;;;;;;;;5074811;28;20344;-64
2023/08/01 10:21:59;;;;;;;4.47;3.28;;;;;;;;;;5078212;28;20198;-65
2023/08/01 10:24:26;;;;;;;3.10;2.80;;;;;;;;;;5071509;28;20205;-65
2023/08/01 10:26:53;;;;;;;4.80;2.90;;;;;;;;;;5067493;28;20210;-65
2023/08/01 10:29:21;;;;;;;2.83;2.60;;;;;;;;;;5069535;28;20236;-65
2023/08/01 10:31:55;;;;;;;2.60;2.40;;;;;;;;;;5069936;28;20225;-65
2023/08/01 10:34:22;;;;;;;3.97;2.80;;;;;;;;;;5069990;28;20258;-64
2023/08/01 10:36:59;;;;;;;3.92;2.45;;;;;;;;;;5069480;28;20220;-66
2023/08/01 10:39:27;;;;;;;2.67;2.40;;;;;;;;;;5068905;28;20228;-65
2023/08/01 10:42:01;;;;;;;2.50;2.30;;;;;;;;;;5062811;28;20200;-65
2023/08/01 10:44:30;;;;;;;2.45;2.25;;;;;;;;;;5071449;28;20189;-64
2023/08/01 10:46:59;;;;;;;2.75;2.38;;;;;;;;;;5076692;28;20212;-63
2023/08/01 10:49:37;;;;;;;3.22;2.40;;;;;;;;;;5067857;28;20221;-66
2023/08/01 10:52:06;;;;;;;2.25;2.08;;;;;;;;;;5058077;28;20248;-66
2023/08/01 10:54:37;;;;;;;3.88;2.45;;;;;;;;;;5062700;28;20209;-64
2023/08/01 10:57:06;;;;;;;5.38;2.65;;;;;;;;;;5048998;28;20217;-63
2023/08/01 10:59:34;;;;;;;3.03;2.10;;;;;;;;;;5048702;28;20197;-65
2023/08/01 11:02:02;;;;;;;2.03;1.77;;;;;;;;;;5068942;28;20663;-66
2023/08/01 11:04:29;;;;;;;3.22;1.67;;;;;;;;;;5067967;28;20196;-65
2023/08/01 11:06:56;;;;;;;3.30;1.77;;;;;;;;;;5053915;28;20205;-64
2023/08/01 11:09:24;;;;;;;1.75;1.30;;;;;;;;;;5072344;28;20225;-66
2023/08/01 11:11:53;;;;;;;1.40;1.30;;;;;;;;;;5070639;28;20200;-66
2023/08/01 11:14:24;;;;;;;4.35;1.95;;;;;;;;;;5072143;28;20205;-64
2023/08/01 11:16:52;;;;;;;3.20;1.40;;;;;;;;;;5069718;28;20213;-64
2023/08/01 11:19:20;;;;;;;1.60;1.50;;;;;;;;;;5068147;28;20217;-65
2023/08/01 11:21:47;;;;;;;2.55;2.10;;;;;;;;;;5067217;28;20266;-65
2023/08/01 11:24:15;;;;;;;1.70;1.60;;;;;;;;;;5055164;28;20209;-65
2023/08/01 11:26:44;;;;;;;1.98;1.77;;;;;;;;;;5068215;28;20219;-66
2023/08/01 11:29:12;;;;;;;2.95;1.48;;;;;;;;;;5073933;28;20228;-65
2023/08/01 11:31:41;;;;;;;1.58;1.48;;;;;;;;;;5070940;28;20654;-63
2023/08/01 11:34:10;;;;;;;2.35;1.50;;;;;;;;;;5060735;28;20216;-66
2023/08/01 11:36:38;;;;;;;1.35;1.25;;;;;;;;;;5078476;28;20239;-65
2023/08/01 11:39:06;;;;;;;0.82;0.82;;;;;;;;;;5080987;28;20239;-66
2023/08/01 11:41:34;;;;;;;1.52;1.25;;;;;;;;;;5075798;28;20207;-67
2023/08/01 11:44:04;;;;;;;1.33;1.08;;;;;;;;;;5082997;28;20646;-65
2023/08/01 11:46:33;;;;;;;0.75;0.75;;;;;;;;;;5068127;28;20205;-65
2023/08/01 11:49:03;;;;;;;0.90;0.90;;;;;;;;;;5074246;28;20294;-65
2023/08/01 11:51:31;;;;;;;0.65;0.65;;;;;;;;;;5073761;28;20521;-68
2023/08/01 11:53:59;;;;;;;0.98;0.80;;;;;;;;;;5075297;28;20193;-65
2023/08/01 11:56:26;;;;;;;0.80;0.80;;;;;;;;;;5070727;28;20201;-64
2023/08/01 11:58:53;;;;;;;0.95;0.80;;;;;;;;;;5080921;28;20290;-65
2023/08/01 12:01:21;;;;;;;0.68;0.60;;;;;;;;;;5076934;28;20204;-66
2023/08/01 12:03:52;;;;;;;0.60;0.60;;;;;;;;;;5081662;28;20677;-66
2023/08/01 12:06:21;;;;;;;1.30;0.60;;;;;;;;;;5060882;28;20372;-67
2023/08/01 12:08:50;;;;;;;0.60;0.60;;;;;;;;;;5074626;28;20225;-66
2023/08/01 12:11:26;;;;;;;1.13;0.70;;;;;;;;;;5069279;28;20223;-65
2023/08/01 12:14:09;;;;;;;1.83;0.90;;;;;;;;;;5071250;28;20200;-64
2023/08/01 12:16:38;;;;;;;1.58;0.60;;;;;;;;;;5080265;28;20324;-66
2023/08/01 12:19:09;;;;;;;1.20;1.10;;;;;;;;;;5073881;28;20224;-66
2023/08/01 12:21:37;;;;;;;1.42;1.10;;;;;;;;;;5075362;28;20672;-66
2023/08/01 12:24:04;;;;;;;0.80;0.80;;;;;;;;;;5073907;28;20697;-64
2023/08/01 12:26:31;;;;;;;1.00;0.80;;;;;;;;;;5078807;28;20259;-65
2023/08/01 12:28:59;;;;;;;1.50;1.17;;;;;;;;;;5075561;28;20220;-66
2023/08/01 12:31:26;;;;;;;0.85;0.85;;;;;;;;;;5075805;28;20520;-65
2023/08/01 12:33:54;;;;;;;0.65;0.65;;;;;;;;;;5081369;28;20212;-66
2023/08/01 12:36:21;;;;;;;1.38;0.80;;;;;;;;;;5074317;28;20259;-63
2023/08/01 12:38:49;;;;;;;2.15;0.90;;;;;;;;;;5068092;28;20282;-64
2023/08/01 12:41:16;;;;;;;0.70;0.70;;;;;;;;;;5080375;28;20205;-66
2023/08/01 12:43:43;;;;;;;0.80;0.80;;;;;;;;;;5058051;28;20608;-66
2023/08/01 12:46:11;;;;;;;0.90;0.90;;;;;;;;;;5071819;28;22192;-65
2023/08/01 12:48:38;;;;;;;1.65;0.80;;;;;;;;;;5075329;28;20228;-66
2023/08/01 12:51:06;;;;;;;1.20;1.10;;;;;;;;;;5078517;28;20288;-62
2023/08/01 12:53:33;;;;;;;1.95;1.10;;;;;;;;;;5074368;28;20623;-67
2023/08/01 12:56:00;;;;;;;1.23;1.13;;;;;;;;;;5081805;28;20285;-67
2023/08/01 12:58:27;;;;;;;1.00;1.00;;;;;;;;;;5076467;28;20224;-66
2023/08/01 13:00:56;;;;;;;1.55;1.10;;;;;;;;;;5071293;28;20208;-66
2023/08/01 13:03:23;;;;;;;1.10;1.10;;;;;;;;;;5075462;28;20205;-64
2023/08/01 13:05:52;;;;;;;1.20;1.10;;;;;;;;;;5079608;28;20677;-66
2023/08/01 13:08:20;;;;;;;1.48;0.95;;;;;;;;;;5072751;28;20709;-64
2023/08/01 13:10:49;;;;;;;1.15;1.10;;;;;;;;;;5069908;28;20617;-66
2023/08/01 13:13:17;;;;;;;0.90;0.90;;;;;;;;;;5075455;28;20208;-65
2023/08/01 13:15:44;;;;;;;1.00;1.00;;;;;;;;;;5071189;28;20844;-67
2023/08/01 13:18:12;;;;;;;1.10;1.02;;;;;;;;;;5061622;28;20228;-67
2023/08/01 13:20:39;;;;;;;1.58;1.00;;;;;;;;;;5072560;28;20201;-66
2023/08/01 13:23:07;;;;;;;1.42;1.10;;;;;;;;;;5076167;28;20247;-67
2023/08/01 13:25:34;;;;;;;2.72;1.10;;;;;;;;;;5079999;28;20197;-67
2023/08/01 13:28:01;;;;;;;1.50;1.08;;;;;;;;;;5079171;28;20217;-67
2023/08/01 13:30:29;;;;;;;1.77;0.90;;;;;;;;;;5074935;28;20588;-67
2023/08/01 13:32:56;;;;;;;1.50;1.20;;;;;;;;;;5070534;28;21341;-67
2023/08/01 13:35:23;;;;;;;1.65;0.90;;;;;;;;;;5070964;28;20202;-66
2023/08/01 13:37:50;;;;;;;1.10;1.10;;;;;;;;;;5072477;28;20686;-66
2023/08/01 13:40:18;;;;;;;2.00;0.90;;;;;;;;;;5081117;28;20201;-66
2023/08/01 13:42:45;;;;;;;1.20;1.10;;;;;;;;;;5076123;28;20303;-66
2023/08/01 13:45:12;;;;;;;1.02;1.02;;;;;;;;;;5072812;28;20197;-66
2023/08/01 13:47:40;;;;;;;1.77;1.00;;;;;;;;;;5070443;28;20695;-63
2023/08/01 13:50:08;;;;;;;1.10;1.10;;;;;;;;;;5073058;28;20292;-67
2023/08/01 13:52:39;;;;;;;1.05;1.05;;;;;;;;;;5069840;28;20300;-66
2023/08/01 13:55:07;;;;;;;1.02;1.02;;;;;;;;;;5075048;28;20219;-66
2023/08/01 13:57:34;;;;;;;1.00;0.88;;;;;;;;;;5076766;28;20255;-68
2023/08/01 14:00:01;;;;;;;1.70;1.13;;;;;;;;;;5073808;28;20619;-66
2023/08/01 14:02:39;;;;;;;1.38;1.00;;;;;;;;;;5072328;28;20613;-68
2023/08/01 14:05:06;;;;;;;0.98;0.98;;;;;;;;;;5070655;28;20200;-67
2023/08/01 14:07:37;;;;;;;1.05;0.90;;;;;;;;;;5066391;28;20225;-67
2023/08/01 14:10:10;;;;;;;1.02;1.02;;;;;;;;;;5076038;28;20685;-67
2023/08/01 14:12:37;;;;;;;1.25;1.10;;;;;;;;;;5078687;28;20202;-65
2023/08/01 14:15:05;;;;;;;1.67;1.00;;;;;;;;;;5079057;28;20719;-67
2023/08/01 14:17:32;;;;;;;1.80;1.45;;;;;;;;;;5079055;28;20244;-66
2023/08/01 14:19:59;;;;;;;0.90;0.90;;;;;;;;;;5078473;28;20270;-67
2023/08/01 14:22:27;;;;;;;1.30;1.10;;;;;;;;;;5073352;28;20197;-66
2023/08/01 14:24:54;;;;;;;1.85;0.93;;;;;;;;;;5074091;28;20214;-65
2023/08/01 14:27:22;;;;;;;1.42;1.10;;;;;;;;;;5071551;28;20205;-64
2023/08/01 14:29:49;;;;;;;1.00;1.00;;;;;;;;;;5079505;28;20201;-64
2023/08/01 14:32:18;;;;;;;2.20;1.00;;;;;;;;;;5073198;28;20205;-64
2023/08/01 14:34:46;;;;;;;2.05;0.98;;;;;;;;;;5081584;28;20789;-67
2023/08/01 14:37:13;;;;;;;1.67;1.20;;;;;;;;;;5075022;28;20209;-65
2023/08/01 14:39:40;;;;;;;1.23;1.17;;;;;;;;;;5075372;28;20197;-67
2023/08/01 14:42:07;;;;;;;1.10;1.10;;;;;;;;;;5071914;28;20201;-67
2023/08/01 14:44:35;;;;;;;1.17;1.13;;;;;;;;;;5078311;28;20193;-68
2023/08/01 14:47:02;;;;;;;1.02;0.93;;;;;;;;;;5070781;28;20247;-67